首页
METAR-TAF:

METAR-TAF

机场 :

潘普洛纳机场

潘普洛納, 西班牙

纬度: 42-46N, 经度: 001-38W, 海拔: 459米

当前天气观测

该预报发布于28分钟前的14:00 UTC
风速7节,风向,在西之间变化
温度 34°C
湿度 26%
气压 1015 hPa
能见度10公里或以上
1500米以下无云,无积雨云

METAR: LEPP 251400Z 18007KT 100V260 CAVOK 34/12 Q1015

时间: 16:28 (14:28 UTC)

预报

该预报发布于6小时和28分钟前的08:00 UTC
预报有效从25日的 09点(UTC)到 26日的 09点(UTC)
风速10节,风向南转南东
能见度10公里或以上
少量云层高于3000英尺
短暂存在
从 25日的 18点(UTC)到 25日的 23点(UTC)
风速15节,风向西转西北
成为
从 25日的 22点(UTC)到 25日的 24点(UTC)
风速5节,风向多变
成为
从 26日的 06点(UTC)到 26日的 08点(UTC)
风速12节,风向南转南东

TAF: LEPP 250800Z 2509/2609 15010KT 9999 FEW030 TX36/2516Z TN22/2602Z TEMPO 2518/2523 30015KT BECMG 2522/2524 VRB05KT BECMG 2606/2608 15012KT

超过4000个机场的气象观测和天气预报(METAR&TAF报告)。

可查询的气象台以黄色和红色小点在地图上表示。

将鼠标移到小点上方,可查看气象台名称。

然后点击查看天气观测和预报。

如需切换地图:点击带黑十字的绿色按钮放大地图;点击带横线的绿色按钮缩小地图;或者点击绿色箭头查看邻近地区的地图。


METAR-TAF: